Time;durP1;ratioP1;P1;durP2;ratioP2;P2;SDS_P1;SDS_P2;PMS_P1;PMS_P2;Temp;Humidity;BMP_temperature;BMP_pressure;BME280_temperature;BME280_humidity;BME280_pressure;Samples;Min_cycle;Max_cycle;Signal;HPM_P1;HPM_P2
2022/05/24 00:00:43;;;;;;;3.47;3.17;;;;;;;;;;5000995;28;20263;-65
2022/05/24 00:03:11;;;;;;;3.33;3.07;;;;;;;;;;5001597;28;20230;-65
2022/05/24 00:05:38;;;;;;;3.77;3.03;;;;;;;;;;5001269;28;20262;-65
2022/05/24 00:08:07;;;;;;;3.37;3.07;;;;;;;;;;5004889;28;20199;-65
2022/05/24 00:10:35;;;;;;;4.33;3.50;;;;;;;;;;4998248;28;21833;-65
2022/05/24 00:13:03;;;;;;;3.70;2.80;;;;;;;;;;4996109;28;24366;-66
2022/05/24 00:15:30;;;;;;;3.93;3.10;;;;;;;;;;4994322;28;20184;-65
2022/05/24 00:17:57;;;;;;;2.90;2.60;;;;;;;;;;5005778;28;20200;-65
2022/05/24 00:20:27;;;;;;;3.50;3.00;;;;;;;;;;5001278;28;20212;-65
2022/05/24 00:22:54;;;;;;;3.33;2.90;;;;;;;;;;5002333;28;20219;-65
2022/05/24 00:25:21;;;;;;;2.90;2.70;;;;;;;;;;5000481;28;20621;-65
2022/05/24 00:27:49;;;;;;;3.70;3.30;;;;;;;;;;5004232;28;20203;-65
2022/05/24 00:30:17;;;;;;;4.07;3.10;;;;;;;;;;5002533;28;20200;-65
2022/05/24 00:32:44;;;;;;;3.73;3.00;;;;;;;;;;4999691;28;20275;-66
2022/05/24 00:35:12;;;;;;;4.03;3.63;;;;;;;;;;4997629;28;20257;-65
2022/05/24 00:37:40;;;;;;;3.67;3.27;;;;;;;;;;5000721;28;20677;-65
2022/05/24 00:40:08;;;;;;;3.87;3.30;;;;;;;;;;5006665;28;20533;-65
2022/05/24 00:42:36;;;;;;;3.77;2.80;;;;;;;;;;5002977;28;20664;-66
2022/05/24 00:45:07;;;;;;;3.20;2.90;;;;;;;;;;5007604;28;20540;-65
2022/05/24 00:47:34;;;;;;;3.30;2.87;;;;;;;;;;4999549;28;20200;-65
2022/05/24 00:50:04;;;;;;;3.37;2.90;;;;;;;;;;5000360;28;20573;-66
2022/05/24 00:52:40;;;;;;;3.40;3.10;;;;;;;;;;5007952;28;20204;-65
2022/05/24 00:55:09;;;;;;;3.73;3.37;;;;;;;;;;5006856;28;20279;-65
2022/05/24 00:57:37;;;;;;;3.47;3.17;;;;;;;;;;5008777;28;20239;-66
2022/05/24 01:00:05;;;;;;;3.53;3.23;;;;;;;;;;5006552;28;20504;-65
2022/05/24 01:02:36;;;;;;;3.83;3.00;;;;;;;;;;4995084;28;20219;-65
2022/05/24 01:05:06;;;;;;;3.87;3.03;;;;;;;;;;5003758;28;20197;-65
2022/05/24 01:07:39;;;;;;;3.60;3.30;;;;;;;;;;5006538;28;20196;-65
2022/05/24 01:10:33;;;;;;;5.67;3.30;;;;;;;;;;5008335;28;20209;-65
2022/05/24 01:13:15;;;;;;;3.40;3.10;;;;;;;;;;5001220;28;20215;-65
2022/05/24 01:15:44;;;;;;;4.20;3.27;;;;;;;;;;5000261;28;20558;-65
2022/05/24 01:18:14;;;;;;;5.37;3.27;;;;;;;;;;5007075;28;20277;-65
2022/05/24 01:20:45;;;;;;;4.97;3.00;;;;;;;;;;4997087;28;20633;-65
2022/05/24 01:23:31;;;;;;;3.63;2.77;;;;;;;;;;5007691;28;20216;-65
2022/05/24 01:26:06;;;;;;;3.57;3.00;;;;;;;;;;5005027;28;20224;-65
2022/05/24 01:28:38;;;;;;;3.30;3.00;;;;;;;;;;4998166;28;20254;-65
2022/05/24 01:31:05;;;;;;;3.40;2.60;;;;;;;;;;5003629;28;20800;-65
2022/05/24 01:36:21;;;;;;;4.80;3.07;;;;;;;;;;5006651;28;20234;-65
2022/05/24 01:38:52;;;;;;;2.73;2.53;;;;;;;;;;4998034;28;20219;-65
2022/05/24 01:41:30;;;;;;;5.57;2.70;;;;;;;;;;5008281;28;20226;-65
2022/05/24 01:43:57;;;;;;;4.07;3.00;;;;;;;;;;5006444;28;20544;-65
2022/05/24 01:46:31;;;;;;;2.93;2.60;;;;;;;;;;5000090;28;20265;-65
2022/05/24 01:49:01;;;;;;;4.43;2.63;;;;;;;;;;4998690;28;20208;-66
2022/05/24 01:51:33;;;;;;;3.30;2.53;;;;;;;;;;5004593;28;20192;-65
2022/05/24 01:54:03;;;;;;;5.13;2.50;;;;;;;;;;5006463;28;20964;-65
2022/05/24 01:56:38;;;;;;;3.77;2.47;;;;;;;;;;5001819;28;20266;-65
2022/05/24 01:59:07;;;;;;;3.37;2.30;;;;;;;;;;5006864;28;20203;-66
2022/05/24 02:01:41;;;;;;;2.93;2.03;;;;;;;;;;5002323;28;20362;-65
2022/05/24 02:04:08;;;;;;;3.17;2.23;;;;;;;;;;5002790;28;20246;-66
2022/05/24 02:06:35;;;;;;;4.27;2.27;;;;;;;;;;4998497;28;20231;-65
2022/05/24 02:09:04;;;;;;;2.23;1.90;;;;;;;;;;5003441;28;20652;-65
2022/05/24 02:11:32;;;;;;;2.90;2.30;;;;;;;;;;5005187;28;20287;-66
2022/05/24 02:14:21;;;;;;;4.40;2.40;;;;;;;;;;5000037;28;20250;-66
2022/05/24 02:16:50;;;;;;;5.13;2.20;;;;;;;;;;4998418;28;20204;-65
2022/05/24 02:19:18;;;;;;;3.77;2.40;;;;;;;;;;5002504;28;20199;-65
2022/05/24 02:21:47;;;;;;;2.37;1.90;;;;;;;;;;5006045;28;20196;-65
2022/05/24 02:24:16;;;;;;;3.30;2.17;;;;;;;;;;5003936;28;20219;-65
2022/05/24 02:26:43;;;;;;;2.63;2.00;;;;;;;;;;5001111;28;20248;-65
2022/05/24 02:29:10;;;;;;;2.43;1.80;;;;;;;;;;5005575;28;20274;-65
2022/05/24 02:31:37;;;;;;;2.97;2.30;;;;;;;;;;5006259;28;20207;-65
2022/05/24 02:34:04;;;;;;;2.53;1.90;;;;;;;;;;5006680;28;20207;-65
2022/05/24 02:36:32;;;;;;;4.80;2.70;;;;;;;;;;5002320;28;20208;-65
2022/05/24 02:39:01;;;;;;;2.73;1.90;;;;;;;;;;4989850;28;21050;-65
2022/05/24 02:41:28;;;;;;;3.67;2.07;;;;;;;;;;5005661;28;20653;-65
2022/05/24 02:43:56;;;;;;;2.47;2.13;;;;;;;;;;5002195;28;20606;-65
2022/05/24 02:46:24;;;;;;;2.97;2.20;;;;;;;;;;5005355;28;20195;-65
2022/05/24 02:48:51;;;;;;;3.10;2.03;;;;;;;;;;4999463;28;20199;-65
2022/05/24 02:51:18;;;;;;;3.33;2.10;;;;;;;;;;5004419;28;20569;-65
2022/05/24 02:53:45;;;;;;;2.70;1.80;;;;;;;;;;5004168;28;20215;-66
2022/05/24 02:56:15;;;;;;;3.33;2.00;;;;;;;;;;5007094;28;20693;-65
2022/05/24 02:58:46;;;;;;;1.90;1.70;;;;;;;;;;5000348;28;20231;-65
2022/05/24 03:01:15;;;;;;;4.30;2.10;;;;;;;;;;5004181;28;20219;-65
2022/05/24 03:03:43;;;;;;;3.43;2.00;;;;;;;;;;5000372;28;20339;-65
2022/05/24 03:06:10;;;;;;;2.27;1.70;;;;;;;;;;5002120;28;20207;-65
2022/05/24 03:14:24;;;;;;;4.30;1.70;;;;;;;;;;4996747;28;20235;-65
2022/05/24 03:16:56;;;;;;;2.93;2.00;;;;;;;;;;4999312;28;20273;-65
2022/05/24 03:19:24;;;;;;;3.03;1.80;;;;;;;;;;5002993;28;20200;-65
2022/05/24 03:21:51;;;;;;;7.77;2.13;;;;;;;;;;5005595;28;20211;-65
2022/05/24 03:24:18;;;;;;;1.83;1.50;;;;;;;;;;5006387;28;20215;-65
2022/05/24 03:26:45;;;;;;;4.67;1.90;;;;;;;;;;4994659;28;20219;-65
2022/05/24 03:29:12;;;;;;;3.13;1.70;;;;;;;;;;4997257;28;20196;-65
2022/05/24 03:31:41;;;;;;;2.57;1.87;;;;;;;;;;5007389;28;20626;-66
2022/05/24 03:34:09;;;;;;;2.57;1.50;;;;;;;;;;4997576;28;20202;-65
2022/05/24 03:36:36;;;;;;;2.83;1.80;;;;;;;;;;5007447;28;20255;-65
2022/05/24 03:39:03;;;;;;;1.83;1.50;;;;;;;;;;4991947;28;20645;-65
2022/05/24 03:41:31;;;;;;;3.70;1.50;;;;;;;;;;5003564;28;20251;-66
2022/05/24 03:43:58;;;;;;;2.20;1.77;;;;;;;;;;4999216;28;20624;-65
2022/05/24 03:46:26;;;;;;;3.77;1.57;;;;;;;;;;5006318;28;20195;-65
2022/05/24 03:48:56;;;;;;;3.47;1.57;;;;;;;;;;4991910;28;20713;-65
2022/05/24 03:51:24;;;;;;;2.67;1.60;;;;;;;;;;5000446;28;20220;-66
2022/05/24 03:53:52;;;;;;;2.17;1.40;;;;;;;;;;5001299;28;20207;-66
2022/05/24 03:56:22;;;;;;;3.23;1.50;;;;;;;;;;5004730;28;20192;-63
2022/05/24 03:58:52;;;;;;;3.47;1.77;;;;;;;;;;5000281;28;20202;-63
2022/05/24 04:01:20;;;;;;;1.87;1.17;;;;;;;;;;5001678;28;20222;-65
2022/05/24 04:03:47;;;;;;;2.70;2.07;;;;;;;;;;5003216;28;20482;-64
2022/05/24 04:06:14;;;;;;;2.20;1.30;;;;;;;;;;5006938;28;20306;-65
2022/05/24 04:08:42;;;;;;;3.33;1.30;;;;;;;;;;4997734;28;20209;-64
2022/05/24 04:11:10;;;;;;;5.73;1.40;;;;;;;;;;5005801;28;20207;-65
2022/05/24 04:13:38;;;;;;;2.83;1.50;;;;;;;;;;5001292;28;20231;-65
2022/05/24 04:16:05;;;;;;;3.80;1.43;;;;;;;;;;5004419;28;20275;-61
2022/05/24 04:18:33;;;;;;;2.50;1.37;;;;;;;;;;5007264;28;20203;-62
2022/05/24 04:21:00;;;;;;;2.67;1.60;;;;;;;;;;5006980;28;20601;-62
2022/05/24 04:23:27;;;;;;;2.47;1.50;;;;;;;;;;5007084;28;20802;-63
2022/05/24 04:25:55;;;;;;;1.23;1.00;;;;;;;;;;5003307;28;20658;-64
2022/05/24 04:28:23;;;;;;;4.07;1.40;;;;;;;;;;5006379;28;20188;-64
2022/05/24 04:30:52;;;;;;;3.07;1.60;;;;;;;;;;5006123;28;20192;-66
2022/05/24 04:33:19;;;;;;;2.27;1.27;;;;;;;;;;5009640;28;20207;-66
2022/05/24 04:35:46;;;;;;;3.40;1.77;;;;;;;;;;5006158;28;20271;-64
2022/05/24 04:38:14;;;;;;;2.53;1.53;;;;;;;;;;5002100;28;20223;-64
2022/05/24 04:43:27;;;;;;;16.40;3.50;;;;;;;;;;5007260;28;20188;-66
2022/05/24 04:45:55;;;;;;;24.37;5.43;;;;;;;;;;5004009;28;20739;-64
2022/05/24 04:48:22;;;;;;;37.37;6.83;;;;;;;;;;5003490;28;20200;-64
2022/05/24 04:50:56;;;;;;;23.13;6.33;;;;;;;;;;4997223;28;20222;-64
2022/05/24 04:53:24;;;;;;;26.07;8.00;;;;;;;;;;5008984;28;20254;-64
2022/05/24 04:55:51;;;;;;;22.43;6.67;;;;;;;;;;5006254;28;20622;-65
2022/05/24 04:58:18;;;;;;;31.83;7.87;;;;;;;;;;5008645;28;20228;-64
2022/05/24 05:00:47;;;;;;;27.33;6.60;;;;;;;;;;5002437;28;20195;-66
2022/05/24 05:03:17;;;;;;;18.40;5.13;;;;;;;;;;5010086;28;20200;-66
2022/05/24 05:05:45;;;;;;;12.23;5.07;;;;;;;;;;5002540;28;20863;-63
2022/05/24 05:08:13;;;;;;;14.27;4.40;;;;;;;;;;5008580;28;20199;-64
2022/05/24 05:10:40;;;;;;;9.57;3.27;;;;;;;;;;5005392;28;20206;-65
2022/05/24 05:13:08;;;;;;;7.03;2.50;;;;;;;;;;5003188;28;20219;-66
2022/05/24 05:15:37;;;;;;;6.57;2.27;;;;;;;;;;5000543;28;20196;-65
2022/05/24 05:18:09;;;;;;;8.80;2.60;;;;;;;;;;5007476;28;20200;-63
2022/05/24 05:20:39;;;;;;;6.03;2.30;;;;;;;;;;5001945;28;20203;-64
2022/05/24 05:23:07;;;;;;;6.20;1.90;;;;;;;;;;5008583;28;20218;-64
2022/05/24 05:25:34;;;;;;;24.00;6.87;;;;;;;;;;5001800;28;20858;-63
2022/05/24 05:28:02;;;;;;;30.87;10.77;;;;;;;;;;5007640;28;20200;-64
2022/05/24 05:33:16;;;;;;;20.50;7.20;;;;;;;;;;5006337;28;20202;-64
2022/05/24 05:35:44;;;;;;;14.20;5.93;;;;;;;;;;5007231;28;20685;-63
2022/05/24 05:38:12;;;;;;;16.13;5.30;;;;;;;;;;5005410;28;20265;-63
2022/05/24 05:40:39;;;;;;;15.73;5.33;;;;;;;;;;5005394;28;20223;-64
2022/05/24 05:43:07;;;;;;;16.33;4.93;;;;;;;;;;5003553;28;20196;-65
2022/05/24 05:45:34;;;;;;;16.83;4.40;;;;;;;;;;4999402;28;20551;-65
2022/05/24 05:48:01;;;;;;;11.40;3.47;;;;;;;;;;4999197;28;20270;-65
2022/05/24 05:50:29;;;;;;;11.40;3.77;;;;;;;;;;5001248;28;20243;-65
2022/05/24 05:53:01;;;;;;;12.07;3.67;;;;;;;;;;5002428;28;20216;-65
2022/05/24 05:55:37;;;;;;;14.30;4.10;;;;;;;;;;5007978;28;20200;-66
2022/05/24 05:58:07;;;;;;;10.23;3.43;;;;;;;;;;5006229;28;20227;-65
2022/05/24 06:00:35;;;;;;;8.23;2.87;;;;;;;;;;5001032;28;20291;-65
2022/05/24 06:03:02;;;;;;;8.03;3.37;;;;;;;;;;4998823;28;20262;-67
2022/05/24 06:05:29;;;;;;;8.83;2.77;;;;;;;;;;5006233;28;20220;-64
2022/05/24 06:07:57;;;;;;;8.10;3.00;;;;;;;;;;5006033;28;20582;-65
2022/05/24 06:10:25;;;;;;;6.73;2.90;;;;;;;;;;5000207;28;20575;-64
2022/05/24 06:12:52;;;;;;;6.43;2.87;;;;;;;;;;5001174;28;20204;-64
2022/05/24 06:15:19;;;;;;;7.50;2.40;;;;;;;;;;5005679;28;20196;-65
2022/05/24 06:17:49;;;;;;;6.87;2.67;;;;;;;;;;5006379;28;20214;-64
2022/05/24 06:20:18;;;;;;;7.77;2.90;;;;;;;;;;4999735;28;20534;-64
2022/05/24 06:22:46;;;;;;;5.70;2.30;;;;;;;;;;5001712;28;20200;-64
2022/05/24 06:25:15;;;;;;;3.97;2.13;;;;;;;;;;5000734;28;20247;-65
2022/05/24 06:27:42;;;;;;;5.37;2.50;;;;;;;;;;5002486;28;20201;-64
2022/05/24 06:30:15;;;;;;;3.83;1.63;;;;;;;;;;4999274;28;20211;-64
2022/05/24 06:32:55;;;;;;;7.80;1.90;;;;;;;;;;5003153;28;20196;-64
2022/05/24 06:35:23;;;;;;;4.07;2.03;;;;;;;;;;5006270;28;20192;-65
2022/05/24 06:37:54;;;;;;;5.50;1.80;;;;;;;;;;4998352;28;20216;-65
2022/05/24 06:40:22;;;;;;;4.13;1.87;;;;;;;;;;5005196;28;20226;-63
2022/05/24 06:42:55;;;;;;;4.63;1.60;;;;;;;;;;4999239;28;20709;-65
2022/05/24 06:45:25;;;;;;;3.83;2.03;;;;;;;;;;5005714;28;20259;-64
2022/05/24 06:47:52;;;;;;;2.03;1.43;;;;;;;;;;5006562;28;20207;-64
2022/05/24 06:50:20;;;;;;;3.87;1.70;;;;;;;;;;5001856;28;20219;-65
2022/05/24 06:52:47;;;;;;;2.73;1.73;;;;;;;;;;5001416;28;20191;-64
2022/05/24 06:55:17;;;;;;;2.17;1.30;;;;;;;;;;5005013;28;20196;-65
2022/05/24 06:57:45;;;;;;;3.30;1.70;;;;;;;;;;5000700;28;20231;-64
2022/05/24 07:02:59;;;;;;;3.23;1.30;;;;;;;;;;5000774;28;20270;-65
2022/05/24 07:05:27;;;;;;;4.27;1.50;;;;;;;;;;5005777;28;20233;-64
2022/05/24 07:07:54;;;;;;;3.97;1.90;;;;;;;;;;5006724;28;20192;-64
2022/05/24 07:10:21;;;;;;;2.07;1.33;;;;;;;;;;5005691;28;20732;-64
2022/05/24 07:12:57;;;;;;;2.70;1.50;;;;;;;;;;4991739;28;20201;-64
2022/05/24 07:15:24;;;;;;;2.20;1.17;;;;;;;;;;5003825;28;20208;-65
2022/05/24 07:17:52;;;;;;;3.13;1.60;;;;;;;;;;5003477;28;20227;-64
2022/05/24 07:20:19;;;;;;;3.60;1.30;;;;;;;;;;5001911;28;20198;-65
2022/05/24 07:22:48;;;;;;;2.20;1.30;;;;;;;;;;5000622;28;20200;-65
2022/05/24 07:25:18;;;;;;;2.53;1.30;;;;;;;;;;4999135;28;20239;-64
2022/05/24 07:27:46;;;;;;;1.80;1.20;;;;;;;;;;5002275;28;20214;-64
2022/05/24 07:30:13;;;;;;;2.20;1.00;;;;;;;;;;5006313;28;20214;-64
2022/05/24 07:32:40;;;;;;;2.73;1.17;;;;;;;;;;5000884;28;20199;-64
2022/05/24 07:35:10;;;;;;;2.00;1.20;;;;;;;;;;5005691;28;20212;-63
2022/05/24 07:37:41;;;;;;;2.67;1.33;;;;;;;;;;4996540;28;20643;-64
2022/05/24 07:45:54;;;;;;;1.67;0.90;;;;;;;;;;5002680;28;20273;-64
2022/05/24 07:48:21;;;;;;;1.50;1.00;;;;;;;;;;5002064;28;20207;-63
2022/05/24 07:50:49;;;;;;;3.47;1.23;;;;;;;;;;5002351;28;20203;-63
2022/05/24 07:53:16;;;;;;;2.30;1.30;;;;;;;;;;5004354;28;20185;-63
2022/05/24 07:55:44;;;;;;;1.93;1.10;;;;;;;;;;5009802;28;20191;-63
2022/05/24 07:58:11;;;;;;;1.50;0.90;;;;;;;;;;5009254;28;20245;-63
2022/05/24 08:00:39;;;;;;;3.50;1.17;;;;;;;;;;5010702;28;20199;-63
2022/05/24 08:03:07;;;;;;;1.33;0.80;;;;;;;;;;4994817;28;20224;-63
2022/05/24 08:05:37;;;;;;;1.30;0.90;;;;;;;;;;5010029;28;20641;-63
2022/05/24 08:08:05;;;;;;;1.33;0.87;;;;;;;;;;5008855;28;20211;-63
2022/05/24 08:10:35;;;;;;;1.20;0.80;;;;;;;;;;5008178;28;20192;-63
2022/05/24 08:13:04;;;;;;;1.90;0.97;;;;;;;;;;5003696;28;20211;-63
2022/05/24 08:15:32;;;;;;;1.70;1.10;;;;;;;;;;5010418;28;20199;-62
2022/05/24 08:17:59;;;;;;;1.70;1.00;;;;;;;;;;5004450;28;20687;-63
2022/05/24 08:20:27;;;;;;;1.93;0.80;;;;;;;;;;5005547;28;20211;-63
2022/05/24 08:22:54;;;;;;;0.80;0.73;;;;;;;;;;5003283;28;20233;-62
2022/05/24 08:25:23;;;;;;;1.43;0.50;;;;;;;;;;5003020;28;20513;-62
2022/05/24 08:27:51;;;;;;;2.93;0.70;;;;;;;;;;5005542;28;20199;-64
2022/05/24 08:30:22;;;;;;;1.83;0.70;;;;;;;;;;5009060;28;20219;-64
2022/05/24 08:32:52;;;;;;;1.47;0.80;;;;;;;;;;5001955;28;20218;-64
2022/05/24 08:35:19;;;;;;;1.57;0.90;;;;;;;;;;5008941;28;20196;-64
2022/05/24 08:37:47;;;;;;;1.07;0.97;;;;;;;;;;5006399;28;20269;-64
2022/05/24 08:40:16;;;;;;;1.17;0.73;;;;;;;;;;5008236;28;20210;-64
2022/05/24 08:43:02;;;;;;;2.33;0.90;;;;;;;;;;5006424;28;20203;-64
2022/05/24 08:48:30;;;;;;;0.83;0.80;;;;;;;;;;5008231;28;20200;-64
2022/05/24 08:51:06;;;;;;;2.00;1.13;;;;;;;;;;5000591;28;20277;-64
2022/05/24 08:53:39;;;;;;;1.83;0.80;;;;;;;;;;5005077;28;20207;-64
2022/05/24 08:56:07;;;;;;;0.93;0.83;;;;;;;;;;5003768;28;20284;-65
2022/05/24 08:58:37;;;;;;;1.20;0.70;;;;;;;;;;5006765;28;20235;-64
2022/05/24 09:01:06;;;;;;;1.37;0.67;;;;;;;;;;5001505;28;20216;-62
2022/05/24 09:03:34;;;;;;;1.90;1.03;;;;;;;;;;5002877;28;20283;-65
2022/05/24 09:06:10;;;;;;;1.50;1.00;;;;;;;;;;5009412;28;20266;-64
2022/05/24 09:08:49;;;;;;;2.13;1.17;;;;;;;;;;5004177;28;20230;-64
2022/05/24 09:11:29;;;;;;;0.80;0.80;;;;;;;;;;5004453;28;20199;-64
2022/05/24 09:14:19;;;;;;;1.43;0.90;;;;;;;;;;5006702;28;20657;-64
2022/05/24 09:16:47;;;;;;;1.07;0.80;;;;;;;;;;5003286;28;20196;-64
2022/05/24 09:19:27;;;;;;;2.20;0.83;;;;;;;;;;5004609;28;20242;-65
2022/05/24 09:21:58;;;;;;;1.47;0.80;;;;;;;;;;4990719;28;20200;-64
2022/05/24 09:24:33;;;;;;;1.53;0.70;;;;;;;;;;5001926;28;20195;-63
2022/05/24 09:27:14;;;;;;;1.07;0.73;;;;;;;;;;5002351;28;20230;-64
2022/05/24 09:30:10;;;;;;;1.13;0.87;;;;;;;;;;5007146;28;20222;-64
2022/05/24 09:32:46;;;;;;;2.27;1.07;;;;;;;;;;4999799;28;20196;-64
2022/05/24 09:35:22;;;;;;;1.00;0.90;;;;;;;;;;5007589;28;20199;-64
2022/05/24 09:38:03;;;;;;;1.30;0.70;;;;;;;;;;5004587;28;20218;-64
2022/05/24 09:40:53;;;;;;;1.33;0.40;;;;;;;;;;5009927;28;20196;-64
2022/05/24 09:43:34;;;;;;;1.20;0.70;;;;;;;;;;5002455;28;20199;-63
2022/05/24 09:46:11;;;;;;;1.10;0.73;;;;;;;;;;5006162;28;20234;-64
2022/05/24 09:48:52;;;;;;;0.73;0.70;;;;;;;;;;5011397;28;20260;-63
2022/05/24 09:51:28;;;;;;;1.77;0.80;;;;;;;;;;5000891;28;20224;-63
2022/05/24 09:53:58;;;;;;;1.80;1.00;;;;;;;;;;5004629;28;20203;-63
2022/05/24 09:56:33;;;;;;;1.13;0.57;;;;;;;;;;5008997;28;20227;-63
2022/05/24 09:59:03;;;;;;;0.77;0.60;;;;;;;;;;5001194;28;20222;-63
2022/05/24 10:01:38;;;;;;;1.53;0.70;;;;;;;;;;5004968;28;20226;-63
2022/05/24 10:04:17;;;;;;;1.20;0.80;;;;;;;;;;5005438;28;20617;-63
2022/05/24 10:06:53;;;;;;;0.87;0.87;;;;;;;;;;4999796;28;20223;-63
2022/05/24 10:09:35;;;;;;;0.50;0.50;;;;;;;;;;4987984;28;20219;-63
2022/05/24 10:12:26;;;;;;;1.43;0.70;;;;;;;;;;5004866;28;20211;-63
2022/05/24 10:15:14;;;;;;;0.80;0.80;;;;;;;;;;5001381;28;20362;-63
2022/05/24 10:17:47;;;;;;;1.07;0.70;;;;;;;;;;5004253;28;20502;-63
2022/05/24 10:20:35;;;;;;;1.57;0.80;;;;;;;;;;5004389;28;20337;-63
2022/05/24 10:23:14;;;;;;;1.00;0.60;;;;;;;;;;5004700;28;20196;-64
2022/05/24 10:25:44;;;;;;;0.77;0.63;;;;;;;;;;5006179;28;20239;-64
2022/05/24 10:28:16;;;;;;;0.77;0.63;;;;;;;;;;5007836;28;20254;-64
2022/05/24 10:30:46;;;;;;;0.80;0.50;;;;;;;;;;5001206;28;20199;-64
2022/05/24 10:39:19;;;;;;;0.90;0.60;;;;;;;;;;5001066;28;20274;-64
2022/05/24 10:41:53;;;;;;;1.53;0.60;;;;;;;;;;5003078;28;20203;-63
2022/05/24 10:44:47;;;;;;;1.23;0.70;;;;;;;;;;5003989;28;20685;-64
2022/05/24 10:47:33;;;;;;;0.87;0.80;;;;;;;;;;5002705;28;20231;-64
2022/05/24 10:50:05;;;;;;;1.07;0.70;;;;;;;;;;4992649;28;20714;-64
2022/05/24 10:52:56;;;;;;;1.53;0.70;;;;;;;;;;5007657;28;20268;-63
2022/05/24 10:55:33;;;;;;;0.87;0.70;;;;;;;;;;5006559;28;20227;-63
2022/05/24 10:58:09;;;;;;;0.80;0.80;;;;;;;;;;4983281;28;20292;-63
2022/05/24 11:00:46;;;;;;;1.27;0.73;;;;;;;;;;5004486;28;20200;-63
2022/05/24 11:03:16;;;;;;;1.07;0.83;;;;;;;;;;5001297;28;20214;-64
2022/05/24 11:06:02;;;;;;;0.73;0.73;;;;;;;;;;5006256;28;20279;-64
2022/05/24 11:08:37;;;;;;;0.80;0.80;;;;;;;;;;5006483;28;20203;-64
2022/05/24 11:11:16;;;;;;;0.90;0.60;;;;;;;;;;5004153;28;20192;-64
2022/05/24 11:13:57;;;;;;;0.77;0.70;;;;;;;;;;4999374;28;20215;-63
2022/05/24 11:16:48;;;;;;;2.63;0.80;;;;;;;;;;5003273;28;20852;-64
2022/05/24 11:19:31;;;;;;;0.63;0.63;;;;;;;;;;5004619;28;20203;-64
2022/05/24 11:22:21;;;;;;;0.83;0.80;;;;;;;;;;5003303;28;20215;-64
2022/05/24 11:25:07;;;;;;;1.00;0.80;;;;;;;;;;5000517;28;20254;-64
2022/05/24 11:27:39;;;;;;;1.40;0.80;;;;;;;;;;5002347;28;20212;-64
2022/05/24 11:30:28;;;;;;;1.13;0.97;;;;;;;;;;5001033;28;20203;-63
2022/05/24 11:33:03;;;;;;;1.07;0.80;;;;;;;;;;4998959;28;20661;-63
2022/05/24 11:35:38;;;;;;;0.83;0.83;;;;;;;;;;5003645;28;20214;-63
2022/05/24 11:38:20;;;;;;;2.53;0.90;;;;;;;;;;4995855;28;20208;-64
2022/05/24 11:40:51;;;;;;;1.27;0.97;;;;;;;;;;5001475;28;20203;-64
2022/05/24 11:43:43;;;;;;;0.90;0.90;;;;;;;;;;5007318;28;20664;-63
2022/05/24 11:46:32;;;;;;;1.33;0.87;;;;;;;;;;5004116;28;20203;-63
2022/05/24 11:49:04;;;;;;;1.23;0.87;;;;;;;;;;4998761;28;20208;-63
2022/05/24 11:51:44;;;;;;;1.90;0.93;;;;;;;;;;5004689;28;20195;-64
2022/05/24 11:54:21;;;;;;;1.27;0.60;;;;;;;;;;5006154;28;20253;-64
2022/05/24 11:57:03;;;;;;;1.10;1.00;;;;;;;;;;5002978;28;20271;-63
2022/05/24 11:59:50;;;;;;;1.17;0.73;;;;;;;;;;5005236;28;20196;-63
2022/05/24 12:02:25;;;;;;;1.10;1.00;;;;;;;;;;5003808;28;20689;-63
2022/05/24 12:08:35;;;;;;;1.40;0.90;;;;;;;;;;5002266;28;20720;-64
2022/05/24 12:11:05;;;;;;;0.70;0.70;;;;;;;;;;4998586;28;20220;-63
2022/05/24 12:13:48;;;;;;;0.80;0.70;;;;;;;;;;4997301;28;20794;-63
2022/05/24 12:16:33;;;;;;;1.33;0.60;;;;;;;;;;4996263;28;20245;-63
2022/05/24 12:19:07;;;;;;;1.20;1.00;;;;;;;;;;4999410;28;20236;-62
2022/05/24 12:21:43;;;;;;;1.13;0.80;;;;;;;;;;5002631;28;20203;-63
2022/05/24 12:24:23;;;;;;;1.20;1.10;;;;;;;;;;5005556;28;20203;-63
2022/05/24 12:27:10;;;;;;;0.70;0.70;;;;;;;;;;4998490;28;20879;-62
2022/05/24 12:29:49;;;;;;;1.07;0.70;;;;;;;;;;5001986;28;20262;-62
2022/05/24 12:32:19;;;;;;;0.90;0.70;;;;;;;;;;4994183;28;20184;-64
2022/05/24 12:34:49;;;;;;;1.90;0.80;;;;;;;;;;4996232;28;20222;-64
2022/05/24 12:37:21;;;;;;;1.23;0.90;;;;;;;;;;5004254;28;20215;-64
2022/05/24 12:40:11;;;;;;;1.10;0.67;;;;;;;;;;5006259;28;20765;-64
2022/05/24 12:43:02;;;;;;;0.50;0.50;;;;;;;;;;5010637;28;20617;-63
2022/05/24 12:45:39;;;;;;;0.80;0.70;;;;;;;;;;5006066;28;20207;-64
2022/05/24 12:48:31;;;;;;;0.70;0.70;;;;;;;;;;5007042;28;20196;-64
2022/05/24 12:51:08;;;;;;;1.07;0.73;;;;;;;;;;4998620;28;20227;-63
2022/05/24 12:53:40;;;;;;;0.63;0.53;;;;;;;;;;5009259;28;20205;-64
2022/05/24 12:56:22;;;;;;;0.60;0.60;;;;;;;;;;5008159;28;20200;-64
2022/05/24 12:58:54;;;;;;;1.17;0.70;;;;;;;;;;5002712;28;20238;-64
2022/05/24 13:01:29;;;;;;;1.07;0.70;;;;;;;;;;5000839;28;20230;-65
2022/05/24 13:04:27;;;;;;;0.70;0.60;;;;;;;;;;5004981;28;20277;-63
2022/05/24 13:07:13;;;;;;;1.63;1.07;;;;;;;;;;4998447;28;20212;-64
2022/05/24 13:09:45;;;;;;;0.60;0.60;;;;;;;;;;5000144;28;20269;-64
2022/05/24 13:12:19;;;;;;;0.63;0.63;;;;;;;;;;5007954;28;20207;-64
2022/05/24 13:14:53;;;;;;;0.63;0.60;;;;;;;;;;4999350;28;20672;-64
2022/05/24 13:17:24;;;;;;;0.93;0.77;;;;;;;;;;5006111;28;20206;-65
2022/05/24 13:20:00;;;;;;;0.87;0.60;;;;;;;;;;5000479;28;20258;-65
2022/05/24 13:22:42;;;;;;;0.50;0.50;;;;;;;;;;4999905;28;20210;-64
2022/05/24 13:25:19;;;;;;;0.97;0.60;;;;;;;;;;5004306;28;20657;-64
2022/05/24 13:27:56;;;;;;;1.43;0.60;;;;;;;;;;5002005;28;20215;-64
2022/05/24 13:33:37;;;;;;;1.87;0.80;;;;;;;;;;5007855;28;20210;-64
2022/05/24 13:36:18;;;;;;;1.50;0.60;;;;;;;;;;5006786;28;20302;-64
2022/05/24 13:39:04;;;;;;;3.70;1.00;;;;;;;;;;5001047;28;20200;-64
2022/05/24 13:41:41;;;;;;;1.03;0.60;;;;;;;;;;5005420;28;20629;-64
2022/05/24 13:44:38;;;;;;;2.60;0.80;;;;;;;;;;4997581;28;20298;-64
2022/05/24 13:47:27;;;;;;;4.83;0.97;;;;;;;;;;5006313;28;20230;-64
2022/05/24 13:49:59;;;;;;;1.93;0.80;;;;;;;;;;5004714;28;20315;-64
2022/05/24 13:52:38;;;;;;;6.30;1.17;;;;;;;;;;5000860;28;20192;-67
2022/05/24 13:55:16;;;;;;;1.80;0.80;;;;;;;;;;5004571;28;20206;-66
2022/05/24 13:58:00;;;;;;;3.73;0.77;;;;;;;;;;5001947;28;20239;-69
2022/05/24 14:00:38;;;;;;;4.17;0.87;;;;;;;;;;4990115;28;20275;-68
2022/05/24 14:03:13;;;;;;;1.67;0.90;;;;;;;;;;5003455;28;20294;-67
2022/05/24 14:05:52;;;;;;;6.03;0.97;;;;;;;;;;5004577;28;20223;-67
2022/05/24 14:08:20;;;;;;;1.70;0.80;;;;;;;;;;5006425;28;20577;-67
2022/05/24 14:10:50;;;;;;;2.27;0.70;;;;;;;;;;5002652;28;20223;-69
2022/05/24 14:13:23;;;;;;;3.37;0.80;;;;;;;;;;5001657;28;20208;-67
2022/05/24 14:15:54;;;;;;;1.17;0.70;;;;;;;;;;5007951;28;20884;-68
2022/05/24 14:18:38;;;;;;;1.90;0.70;;;;;;;;;;5008001;28;20262;-67
2022/05/24 14:21:06;;;;;;;1.17;0.80;;;;;;;;;;4995951;28;21611;-67
2022/05/24 14:23:35;;;;;;;3.63;0.73;;;;;;;;;;5006520;28;20291;-68
2022/05/24 14:26:04;;;;;;;1.73;0.93;;;;;;;;;;5004434;28;20207;-67
2022/05/24 14:28:31;;;;;;;1.20;1.00;;;;;;;;;;5006487;28;20226;-68
2022/05/24 14:30:58;;;;;;;1.50;0.80;;;;;;;;;;4999057;28;20218;-67
2022/05/24 14:33:26;;;;;;;3.80;1.10;;;;;;;;;;5005474;28;20194;-67
2022/05/24 14:35:54;;;;;;;2.83;1.27;;;;;;;;;;5002381;28;20199;-68
2022/05/24 14:38:23;;;;;;;1.07;0.87;;;;;;;;;;5004569;28;20215;-68
2022/05/24 14:40:56;;;;;;;3.83;1.10;;;;;;;;;;4997392;28;20203;-68
2022/05/24 14:43:28;;;;;;;2.87;1.13;;;;;;;;;;5006523;28;20203;-68
2022/05/24 14:45:57;;;;;;;2.20;1.43;;;;;;;;;;5003056;28;20204;-67
2022/05/24 14:48:40;;;;;;;1.93;1.03;;;;;;;;;;5005865;28;20223;-64
2022/05/24 14:51:12;;;;;;;3.97;1.00;;;;;;;;;;5004711;28;20200;-67
2022/05/24 14:53:44;;;;;;;2.03;1.00;;;;;;;;;;5006184;28;20278;-66
2022/05/24 14:56:34;;;;;;;3.37;1.10;;;;;;;;;;5002386;28;20967;-67
2022/05/24 14:59:03;;;;;;;1.40;0.97;;;;;;;;;;4998690;28;20214;-65
2022/05/24 15:01:32;;;;;;;3.70;0.80;;;;;;;;;;5003589;28;20204;-66
2022/05/24 15:04:02;;;;;;;2.53;0.90;;;;;;;;;;5003213;28;20208;-66
2022/05/24 15:06:31;;;;;;;3.17;1.10;;;;;;;;;;4999602;28;20207;-66
2022/05/24 15:17:46;;;;;;;1.63;1.07;;;;;;;;;;4999634;28;20293;-66
2022/05/24 15:20:19;;;;;;;4.00;1.13;;;;;;;;;;4995855;28;20235;-65
2022/05/24 15:23:09;;;;;;;1.40;0.83;;;;;;;;;;4998229;28;20188;-66
2022/05/24 15:25:41;;;;;;;1.80;0.90;;;;;;;;;;5003433;28;20212;-65
2022/05/24 15:28:12;;;;;;;2.03;0.90;;;;;;;;;;5005105;28;20215;-65
2022/05/24 15:30:42;;;;;;;1.97;0.80;;;;;;;;;;5001462;28;20547;-67
2022/05/24 15:33:14;;;;;;;1.03;0.70;;;;;;;;;;5003117;28;20203;-66
2022/05/24 15:35:43;;;;;;;2.63;0.80;;;;;;;;;;5007333;28;20679;-65
2022/05/24 15:38:15;;;;;;;1.30;0.70;;;;;;;;;;4998908;28;20730;-65
2022/05/24 15:40:49;;;;;;;1.67;0.90;;;;;;;;;;4999975;28;20245;-65
2022/05/24 15:43:20;;;;;;;0.87;0.60;;;;;;;;;;5005061;28;20198;-65
2022/05/24 15:45:53;;;;;;;3.27;1.03;;;;;;;;;;5007095;28;20226;-65
2022/05/24 15:48:24;;;;;;;3.83;1.70;;;;;;;;;;4993868;28;20290;-65
2022/05/24 15:50:54;;;;;;;16.00;6.07;;;;;;;;;;4998978;28;20207;-65
2022/05/24 15:53:23;;;;;;;20.03;7.03;;;;;;;;;;5006061;28;20192;-66
2022/05/24 15:55:55;;;;;;;15.03;6.27;;;;;;;;;;5003432;28;20200;-66
2022/05/24 15:58:28;;;;;;;12.80;5.63;;;;;;;;;;5000065;28;20778;-65
2022/05/24 16:01:00;;;;;;;13.57;5.73;;;;;;;;;;4998819;28;20585;-66